Time;durP1;ratioP1;P1;durP2;ratioP2;P2;SDS_P1;SDS_P2;PMS_P1;PMS_P2;Temp;Humidity;BMP_temperature;BMP_pressure;BME280_temperature;BME280_humidity;BME280_pressure;Samples;Min_cycle;Max_cycle;Signal;HPM_P1;HPM_P2
2022/09/12 00:01:36;;;;;;;2.93;2.73;;;20.80;58.20;;;;;;4907550;29;20587;-52
2022/09/12 00:04:05;;;;;;;2.60;2.40;;;20.80;58.10;;;;;;4906941;29;20477;-51
2022/09/12 00:06:35;;;;;;;3.70;2.97;;;20.80;58.10;;;;;;4910037;29;20452;-51
2022/09/12 00:09:06;;;;;;;2.27;2.17;;;20.90;58.10;;;;;;4909492;29;20471;-51
2022/09/12 00:11:36;;;;;;;2.20;2.10;;;20.80;58.10;;;;;;4904126;29;20459;-51
2022/09/12 00:14:06;;;;;;;2.30;2.10;;;20.80;58.10;;;;;;4900085;29;20515;-52
2022/09/12 00:16:37;;;;;;;2.70;2.50;;;20.80;58.00;;;;;;4917912;29;20540;-52
2022/09/12 00:19:07;;;;;;;2.93;2.73;;;20.80;58.00;;;;;;4910415;29;20992;-51
2022/09/12 00:21:38;;;;;;;2.20;2.10;;;20.80;58.00;;;;;;4915333;29;20792;-51
2022/09/12 00:24:07;;;;;;;2.80;2.60;;;20.80;58.00;;;;;;4906382;29;20563;-52
2022/09/12 00:26:36;;;;;;;2.37;2.10;;;20.80;57.90;;;;;;4901214;29;20452;-52
2022/09/12 00:29:05;;;;;;;2.70;2.50;;;20.80;58.00;;;;;;4908837;29;20484;-51
2022/09/12 00:31:34;;;;;;;2.67;2.47;;;20.80;58.00;;;;;;4897228;29;20540;-51
2022/09/12 00:34:04;;;;;;;2.27;2.10;;;20.80;58.00;;;;;;4900266;29;20477;-52
2022/09/12 00:36:32;;;;;;;2.10;2.00;;;20.80;57.90;;;;;;4899834;29;20800;-52
2022/09/12 00:39:01;;;;;;;3.50;2.87;;;20.80;58.00;;;;;;4920586;29;21079;-52
2022/09/12 00:41:32;;;;;;;3.03;2.73;;;20.80;58.00;;;;;;4901126;29;20520;-52
2022/09/12 00:44:03;;;;;;;2.50;2.20;;;20.80;58.00;;;;;;4897661;29;20535;-52
2022/09/12 00:46:37;;;;;;;2.33;2.13;;;20.80;57.90;;;;;;4907041;29;20445;-52
2022/09/12 00:49:14;;;;;;;2.17;2.07;;;20.80;57.90;;;;;;4903637;29;20563;-51
2022/09/12 00:51:47;;;;;;;2.60;2.30;;;20.80;57.90;;;;;;4911457;29;20547;-51
2022/09/12 00:54:20;;;;;;;2.90;2.50;;;20.80;57.90;;;;;;4897099;29;20565;-52
2022/09/12 00:56:53;;;;;;;2.37;2.27;;;20.80;57.90;;;;;;4901443;29;20454;-52
2022/09/12 00:59:25;;;;;;;2.30;2.17;;;20.80;57.80;;;;;;4914419;29;21018;-51
2022/09/12 01:01:54;;;;;;;2.10;1.90;;;20.80;57.80;;;;;;4907074;29;20850;-51
2022/09/12 01:04:27;;;;;;;2.17;1.97;;;20.80;57.80;;;;;;4894636;29;20477;-52
2022/09/12 01:06:58;;;;;;;2.87;2.67;;;20.80;57.80;;;;;;4912279;29;20511;-50
2022/09/12 01:09:26;;;;;;;2.47;2.27;;;20.80;57.80;;;;;;4907494;29;20992;-51
2022/09/12 01:11:55;;;;;;;2.53;2.33;;;20.70;57.70;;;;;;4906633;29;20440;-52
2022/09/12 01:14:24;;;;;;;1.90;1.80;;;20.80;57.70;;;;;;4915008;29;20461;-51
2022/09/12 01:16:53;;;;;;;2.60;2.40;;;20.70;57.60;;;;;;4903548;29;20857;-51
2022/09/12 01:19:52;;;;;;;2.90;2.60;;;20.70;57.60;;;;;;4906333;29;20569;-51
2022/09/12 01:22:45;;;;;;;2.30;2.10;;;20.80;57.80;;;;;;4914679;29;20842;-51
2022/09/12 01:25:23;;;;;;;2.50;2.30;;;20.80;57.70;;;;;;4893093;29;20478;-52
2022/09/12 01:28:08;;;;;;;3.07;2.30;;;20.70;57.60;;;;;;4907474;29;20444;-52
2022/09/12 01:30:51;;;;;;;2.57;2.37;;;20.70;57.60;;;;;;4911476;29;20460;-50
2022/09/12 01:33:34;;;;;;;2.53;2.33;;;20.70;57.50;;;;;;4895167;29;20537;-49
2022/09/12 01:36:24;;;;;;;2.50;2.33;;;20.70;57.50;;;;;;4905780;29;20436;-52
2022/09/12 01:39:00;;;;;;;4.33;2.73;;;20.70;57.50;;;;;;4911126;29;20993;-51
2022/09/12 01:41:36;;;;;;;3.00;2.33;;;20.70;57.50;;;;;;4906774;29;20821;-52
2022/09/12 01:44:13;;;;;;;2.40;2.20;;;20.70;57.50;;;;;;4900936;29;20489;-51
2022/09/12 01:46:48;;;;;;;3.07;2.87;;;20.70;57.60;;;;;;4900617;29;20443;-52
2022/09/12 01:49:23;;;;;;;2.90;2.70;;;20.70;57.50;;;;;;4899362;29;20496;-51
2022/09/12 01:51:59;;;;;;;2.50;2.30;;;20.70;57.50;;;;;;4916546;29;20440;-52
2022/09/12 01:54:33;;;;;;;2.40;2.27;;;20.70;57.50;;;;;;4904809;29;21012;-51
2022/09/12 01:57:08;;;;;;;2.40;2.30;;;20.70;57.40;;;;;;4896531;29;20451;-52
2022/09/12 01:59:43;;;;;;;2.57;2.43;;;20.70;57.40;;;;;;4907772;29;20480;-51
2022/09/12 02:02:16;;;;;;;2.63;2.43;;;20.70;57.40;;;;;;4904196;29;20447;-52
2022/09/12 02:04:52;;;;;;;3.50;2.93;;;20.70;57.30;;;;;;4909057;29;20477;-52
2022/09/12 02:07:23;;;;;;;3.03;2.80;;;20.70;57.40;;;;;;4903845;29;20741;-51
2022/09/12 02:09:57;;;;;;;2.50;2.30;;;20.70;57.40;;;;;;4902828;29;20839;-52
2022/09/12 02:12:31;;;;;;;2.43;2.27;;;20.70;57.40;;;;;;4897754;29;20453;-51
2022/09/12 02:15:03;;;;;;;2.80;2.60;;;20.60;57.30;;;;;;4899817;29;20477;-50
2022/09/12 02:17:38;;;;;;;2.80;2.60;;;20.60;57.20;;;;;;4904941;29;20477;-51
2022/09/12 02:20:13;;;;;;;2.60;2.40;;;20.60;57.20;;;;;;4900093;29;21186;-51
2022/09/12 02:23:04;;;;;;;3.10;2.80;;;20.70;57.30;;;;;;4908867;29;20460;-52
2022/09/12 02:25:35;;;;;;;2.73;2.53;;;20.60;57.20;;;;;;4902772;29;20511;-52
2022/09/12 02:28:08;;;;;;;2.60;2.40;;;20.60;57.20;;;;;;4906271;29;20445;-51
2022/09/12 02:30:44;;;;;;;2.83;2.50;;;20.60;57.20;;;;;;4903598;29;20499;-52
2022/09/12 02:33:20;;;;;;;2.50;2.30;;;20.70;57.30;;;;;;4914041;29;20463;-51
2022/09/12 02:35:54;;;;;;;2.10;1.93;;;20.60;57.20;;;;;;4907446;29;20535;-52
2022/09/12 02:38:28;;;;;;;3.10;2.90;;;20.60;57.20;;;;;;4915462;29;20729;-52
2022/09/12 02:40:57;;;;;;;2.67;2.47;;;20.60;57.20;;;;;;4902715;29;20445;-51
2022/09/12 02:43:25;;;;;;;2.47;2.27;;;20.60;57.20;;;;;;4902446;29;20839;-51
2022/09/12 02:45:54;;;;;;;3.50;2.60;;;20.60;57.10;;;;;;4903739;29;20481;-52
2022/09/12 02:48:27;;;;;;;2.40;2.30;;;20.60;57.10;;;;;;4884293;29;20500;-51
2022/09/12 02:50:56;;;;;;;3.40;3.10;;;20.60;57.10;;;;;;4919055;29;20478;-51
2022/09/12 02:53:26;;;;;;;3.03;2.83;;;20.60;57.10;;;;;;4907039;29;20460;-51
2022/09/12 02:55:55;;;;;;;2.77;2.57;;;20.60;57.10;;;;;;4886288;29;20474;-51
2022/09/12 02:58:27;;;;;;;2.80;2.60;;;20.60;57.10;;;;;;4908715;29;20460;-51
2022/09/12 03:01:08;;;;;;;3.47;3.20;;;20.60;57.00;;;;;;4897698;29;20525;-52
2022/09/12 03:03:54;;;;;;;2.70;2.50;;;20.60;57.00;;;;;;4916114;29;20468;-51
2022/09/12 03:06:33;;;;;;;2.47;2.27;;;20.60;57.00;;;;;;4884198;29;20476;-52
2022/09/12 03:09:12;;;;;;;2.90;2.60;;;20.60;57.00;;;;;;4903883;29;20598;-52
2022/09/12 03:12:02;;;;;;;3.30;3.10;;;20.60;57.00;;;;;;4903805;29;20904;-52
2022/09/12 03:15:00;;;;;;;2.97;2.77;;;20.60;56.90;;;;;;4919974;29;20816;-53
2022/09/12 03:17:40;;;;;;;3.47;3.27;;;20.60;56.90;;;;;;4902149;29;20873;-52
2022/09/12 03:20:15;;;;;;;3.30;3.00;;;20.50;56.80;;;;;;4901656;29;20477;-50
2022/09/12 03:22:52;;;;;;;3.33;3.03;;;20.60;56.90;;;;;;4914679;29;20445;-50
2022/09/12 03:25:27;;;;;;;3.40;3.10;;;20.50;56.70;;;;;;4897638;29;21205;-50
2022/09/12 03:28:04;;;;;;;3.13;2.93;;;20.50;56.70;;;;;;4901132;29;20476;-50
2022/09/12 03:30:38;;;;;;;3.40;3.10;;;20.60;56.90;;;;;;4889727;29;20894;-49
2022/09/12 03:33:06;;;;;;;3.13;2.83;;;20.50;56.80;;;;;;4901840;29;20616;-50
2022/09/12 03:35:36;;;;;;;3.53;3.23;;;20.60;56.90;;;;;;4910352;29;20468;-50
2022/09/12 03:38:06;;;;;;;4.00;3.70;;;20.50;56.80;;;;;;4913340;29;20448;-51
2022/09/12 03:40:35;;;;;;;3.00;2.67;;;20.50;56.70;;;;;;4912473;29;20449;-49
2022/09/12 03:43:04;;;;;;;3.70;3.40;;;20.50;56.70;;;;;;4900211;29;20438;-52
2022/09/12 03:45:32;;;;;;;3.30;3.10;;;20.50;56.70;;;;;;4897483;29;20475;-50
2022/09/12 03:48:01;;;;;;;3.40;3.20;;;20.50;56.70;;;;;;4899329;29;21033;-50
2022/09/12 03:50:30;;;;;;;3.17;2.90;;;20.50;56.60;;;;;;4903047;29;20479;-49
2022/09/12 03:53:00;;;;;;;3.30;3.10;;;20.50;56.60;;;;;;4925183;29;21025;-51
2022/09/12 03:55:29;;;;;;;3.00;2.80;;;20.50;56.70;;;;;;4906039;29;20466;-51
2022/09/12 03:57:58;;;;;;;3.00;2.80;;;20.50;56.70;;;;;;4904680;29;20451;-51
2022/09/12 04:00:27;;;;;;;3.03;2.83;;;20.50;56.60;;;;;;4913085;29;20449;-52
2022/09/12 04:02:56;;;;;;;3.70;3.40;;;20.50;56.70;;;;;;4905826;29;20457;-51
2022/09/12 04:05:25;;;;;;;4.80;4.07;;;20.50;56.70;;;;;;4909488;29;20473;-50
2022/09/12 04:07:53;;;;;;;3.70;3.40;;;20.50;56.70;;;;;;4909257;29;20447;-51
2022/09/12 04:10:23;;;;;;;4.03;3.73;;;20.50;56.60;;;;;;4903661;29;21689;-52
2022/09/12 04:12:52;;;;;;;3.43;3.13;;;20.50;56.50;;;;;;4907994;29;20850;-51
2022/09/12 04:15:24;;;;;;;3.17;2.70;;;20.50;56.60;;;;;;4908219;29;20524;-51
2022/09/12 04:17:52;;;;;;;2.97;2.77;;;20.50;56.50;;;;;;4909695;29;20464;-50
2022/09/12 04:20:21;;;;;;;3.93;3.63;;;20.50;56.50;;;;;;4907914;29;20477;-52
2022/09/12 04:22:49;;;;;;;3.83;3.53;;;20.50;56.50;;;;;;4903700;29;20813;-51
2022/09/12 04:25:18;;;;;;;5.07;4.67;;;20.50;56.40;;;;;;4903804;29;20474;-52
2022/09/12 04:27:48;;;;;;;5.17;4.53;;;20.40;56.20;;;;;;4911517;29;20536;-51
2022/09/12 04:30:17;;;;;;;5.80;5.27;;;20.50;56.40;;;;;;4903657;29;20573;-52
2022/09/12 04:32:45;;;;;;;4.27;3.87;;;20.50;56.20;;;;;;4901630;29;20453;-51
2022/09/12 04:35:14;;;;;;;5.70;5.20;;;20.50;56.20;;;;;;4907015;29;20571;-52
2022/09/12 04:37:43;;;;;;;4.10;3.80;;;20.40;56.10;;;;;;4903764;29;20451;-51
2022/09/12 04:40:11;;;;;;;4.03;3.73;;;20.40;56.20;;;;;;4911990;29;20553;-52
2022/09/12 04:42:40;;;;;;;4.40;4.00;;;20.40;56.20;;;;;;4900667;29;20953;-52
2022/09/12 04:45:11;;;;;;;5.20;4.70;;;20.40;56.20;;;;;;4913005;29;20900;-52
2022/09/12 04:47:40;;;;;;;4.53;4.03;;;20.40;56.20;;;;;;4904632;29;20524;-51
2022/09/12 04:50:09;;;;;;;5.50;5.00;;;20.40;56.20;;;;;;4896920;29;20483;-51
2022/09/12 04:52:38;;;;;;;3.93;3.63;;;20.40;56.20;;;;;;4907589;29;20445;-51
2022/09/12 04:55:07;;;;;;;4.97;4.00;;;20.40;56.20;;;;;;4906141;29;20830;-51
2022/09/12 04:57:36;;;;;;;4.77;4.37;;;20.40;56.10;;;;;;4902912;29;20445;-52
2022/09/12 05:00:05;;;;;;;6.67;5.33;;;20.40;56.10;;;;;;4901006;29;20473;-51
2022/09/12 05:02:36;;;;;;;5.70;5.20;;;20.40;56.00;;;;;;4892515;29;20448;-51
2022/09/12 05:05:06;;;;;;;4.40;4.00;;;20.40;55.90;;;;;;4905470;29;21010;-51
2022/09/12 05:07:34;;;;;;;4.60;4.30;;;20.40;56.10;;;;;;4907563;29;20469;-52
2022/09/12 05:10:04;;;;;;;5.33;4.83;;;20.40;56.20;;;;;;4911277;29;20518;-51
2022/09/12 05:12:32;;;;;;;5.20;4.70;;;20.40;56.10;;;;;;4908031;29;20444;-51
2022/09/12 05:15:01;;;;;;;4.07;3.77;;;20.40;56.10;;;;;;4894999;29;20557;-51
2022/09/12 05:17:29;;;;;;;6.57;6.00;;;20.40;56.20;;;;;;4908574;29;20488;-51
2022/09/12 05:20:00;;;;;;;4.90;4.50;;;20.30;55.80;;;;;;4897353;29;20515;-51
2022/09/12 05:22:29;;;;;;;4.60;4.20;;;20.30;55.90;;;;;;4907324;29;20552;-51
2022/09/12 05:24:57;;;;;;;5.33;4.87;;;20.30;55.90;;;;;;4906499;29;20598;-51
2022/09/12 05:27:26;;;;;;;4.83;4.43;;;20.30;55.90;;;;;;4902863;29;20499;-51
2022/09/12 05:29:54;;;;;;;5.60;5.10;;;20.30;55.90;;;;;;4905280;29;21025;-51
2022/09/12 05:32:23;;;;;;;4.93;4.40;;;20.30;55.90;;;;;;4907167;29;20739;-51
2022/09/12 05:34:51;;;;;;;4.97;4.57;;;20.30;55.90;;;;;;4901358;29;20472;-51
2022/09/12 05:37:22;;;;;;;5.73;5.10;;;20.30;55.80;;;;;;4904343;29;20861;-51
2022/09/12 05:39:51;;;;;;;5.50;5.10;;;20.30;55.80;;;;;;4891157;29;20532;-51
2022/09/12 05:42:20;;;;;;;6.30;5.13;;;20.30;55.90;;;;;;4909402;29;20463;-51
2022/09/12 05:44:48;;;;;;;5.90;5.40;;;20.30;55.80;;;;;;4908773;29;20482;-51
2022/09/12 05:47:18;;;;;;;5.57;5.17;;;20.30;55.70;;;;;;4909265;29;20998;-51
2022/09/12 05:49:46;;;;;;;5.40;4.90;;;20.30;55.80;;;;;;4914040;29;20989;-51
2022/09/12 05:52:15;;;;;;;4.83;4.43;;;20.30;55.80;;;;;;4906956;29;20957;-51
2022/09/12 05:54:46;;;;;;;5.77;5.20;;;20.30;55.90;;;;;;4909541;29;20472;-51
2022/09/12 05:57:14;;;;;;;6.63;5.70;;;20.30;55.80;;;;;;4891613;29;20460;-51
2022/09/12 05:59:43;;;;;;;5.37;4.87;;;20.20;55.60;;;;;;4915195;29;20472;-51
2022/09/12 06:02:12;;;;;;;6.37;5.77;;;20.20;55.60;;;;;;4907650;29;20442;-51
2022/09/12 06:04:41;;;;;;;5.40;4.90;;;20.20;55.60;;;;;;4902887;29;20927;-51
2022/09/12 06:07:10;;;;;;;6.70;6.10;;;20.20;55.70;;;;;;4916450;29;20461;-51
2022/09/12 06:09:38;;;;;;;5.93;5.40;;;20.20;55.70;;;;;;4910406;29;20532;-51
2022/09/12 06:12:08;;;;;;;7.33;6.67;;;20.20;55.60;;;;;;4901863;29;20973;-51
2022/09/12 06:14:37;;;;;;;5.90;5.30;;;20.20;55.60;;;;;;4904369;29;20484;-51
2022/09/12 06:17:06;;;;;;;5.70;5.20;;;20.20;55.70;;;;;;4897343;29;20532;-51
2022/09/12 06:19:34;;;;;;;5.80;5.30;;;20.20;55.60;;;;;;4897252;29;20478;-51
2022/09/12 06:22:03;;;;;;;7.17;6.57;;;20.20;55.60;;;;;;4908099;29;20539;-51
2022/09/12 06:24:32;;;;;;;6.30;5.70;;;20.20;55.60;;;;;;4909314;29;20481;-51
2022/09/12 06:27:01;;;;;;;6.10;5.60;;;20.20;55.70;;;;;;4899408;29;20575;-50
2022/09/12 06:29:31;;;;;;;6.20;5.70;;;20.20;55.80;;;;;;4900850;29;20476;-50
2022/09/12 06:32:00;;;;;;;5.97;5.47;;;20.20;55.70;;;;;;4916428;29;20500;-51
2022/09/12 06:34:29;;;;;;;5.50;5.00;;;20.20;55.70;;;;;;4893027;29;20527;-51
2022/09/12 06:36:58;;;;;;;5.57;5.00;;;20.20;55.70;;;;;;4897447;29;20533;-52
2022/09/12 06:39:26;;;;;;;6.10;5.50;;;20.20;55.80;;;;;;4918834;29;20523;-51
2022/09/12 06:41:55;;;;;;;6.43;5.83;;;20.20;55.60;;;;;;4909985;29;20460;-51
2022/09/12 06:44:38;;;;;;;7.33;6.63;;;20.20;55.70;;;;;;4904008;29;20475;-51
2022/09/12 06:47:07;;;;;;;7.73;7.03;;;20.20;55.80;;;;;;4911513;29;20477;-51
2022/09/12 06:49:35;;;;;;;6.23;5.73;;;20.20;55.70;;;;;;4896134;29;20477;-51
2022/09/12 06:52:08;;;;;;;6.20;5.70;;;20.20;55.60;;;;;;4916898;29;20801;-52
2022/09/12 06:54:36;;;;;;;6.20;5.63;;;20.20;55.80;;;;;;4906253;29;20493;-51
2022/09/12 06:57:06;;;;;;;6.80;6.10;;;20.20;55.70;;;;;;4907211;29;20511;-52
2022/09/12 06:59:34;;;;;;;7.10;6.43;;;20.20;55.80;;;;;;4913602;29;20480;-51
2022/09/12 07:02:04;;;;;;;6.80;6.20;;;20.20;55.90;;;;;;4918288;29;20443;-51
2022/09/12 07:04:35;;;;;;;7.50;6.70;;;20.20;55.90;;;;;;4899924;29;20559;-52
2022/09/12 07:07:04;;;;;;;6.73;6.20;;;20.10;56.00;;;;;;4917826;29;20548;-50
2022/09/12 07:09:33;;;;;;;8.53;7.73;;;20.10;56.10;;;;;;4915792;29;21010;-52
2022/09/12 07:12:03;;;;;;;6.63;6.10;;;20.10;56.20;;;;;;4913755;29;20868;-52
2022/09/12 07:14:31;;;;;;;7.20;6.50;;;20.10;56.00;;;;;;4885689;29;20489;-50
2022/09/12 07:17:00;;;;;;;6.90;6.20;;;20.10;56.30;;;;;;4907992;29;20433;-50
2022/09/12 07:19:30;;;;;;;6.93;6.33;;;20.10;56.10;;;;;;4902161;29;20662;-50
2022/09/12 07:21:58;;;;;;;7.77;6.97;;;20.10;56.10;;;;;;4907587;29;20537;-50
2022/09/12 07:24:27;;;;;;;7.47;6.77;;;20.10;56.20;;;;;;4901336;29;20477;-50
2022/09/12 07:26:57;;;;;;;6.87;6.23;;;20.10;56.30;;;;;;4905481;29;20449;-50
2022/09/12 07:29:25;;;;;;;7.13;6.43;;;20.10;56.20;;;;;;4909477;29;20472;-52
2022/09/12 07:32:10;;;;;;;6.87;6.27;;;20.10;56.20;;;;;;4914736;29;20447;-52
2022/09/12 07:34:40;;;;;;;7.13;6.43;;;20.10;56.20;;;;;;4898678;29;20494;-51
2022/09/12 07:37:09;;;;;;;6.23;5.73;;;20.10;56.20;;;;;;4900421;29;20481;-52
2022/09/12 07:39:37;;;;;;;6.40;5.90;;;20.10;56.20;;;;;;4929135;29;20470;-52
2022/09/12 07:42:06;;;;;;;5.63;5.23;;;20.10;56.20;;;;;;4906451;29;20575;-52
2022/09/12 07:44:35;;;;;;;7.33;6.63;;;20.10;56.10;;;;;;4908680;29;20580;-52
2022/09/12 07:47:04;;;;;;;6.80;6.30;;;20.10;56.10;;;;;;4907801;29;20771;-51
2022/09/12 07:49:36;;;;;;;6.10;5.60;;;20.10;56.10;;;;;;4899846;29;20468;-52
2022/09/12 07:52:05;;;;;;;6.20;5.47;;;20.10;56.10;;;;;;4907926;29;20805;-51
2022/09/12 07:54:34;;;;;;;6.40;5.90;;;20.10;56.20;;;;;;4910852;29;20892;-50
2022/09/12 07:57:03;;;;;;;6.57;5.97;;;20.10;56.20;;;;;;4909651;29;20457;-53
2022/09/12 07:59:31;;;;;;;6.37;5.80;;;20.10;56.20;;;;;;4907998;29;20468;-52
2022/09/12 08:02:20;;;;;;;6.83;6.13;;;20.10;56.20;;;;;;4909680;29;20437;-52
2022/09/12 08:04:48;;;;;;;6.00;5.50;;;20.10;56.20;;;;;;4905477;29;20533;-52
2022/09/12 08:07:19;;;;;;;6.20;5.60;;;20.10;56.20;;;;;;4914802;29;20460;-51
2022/09/12 08:09:47;;;;;;;6.50;5.90;;;20.10;56.20;;;;;;4917742;29;20579;-52
2022/09/12 08:12:16;;;;;;;7.10;6.50;;;20.10;56.20;;;;;;4894534;29;20534;-52
2022/09/12 08:14:45;;;;;;;6.50;6.00;;;20.10;56.30;;;;;;4919116;29;20544;-52
2022/09/12 08:17:14;;;;;;;5.93;5.43;;;20.10;56.30;;;;;;4912558;29;20586;-52
2022/09/12 08:19:43;;;;;;;5.57;5.07;;;20.10;56.20;;;;;;4905207;29;20502;-52
2022/09/12 08:22:12;;;;;;;5.57;5.07;;;20.10;56.30;;;;;;4905465;29;20442;-52
2022/09/12 08:24:42;;;;;;;5.67;5.17;;;20.10;56.30;;;;;;4900004;29;20488;-51
2022/09/12 08:27:11;;;;;;;5.80;4.97;;;20.10;57.50;;;;;;4915617;29;20444;-52
2022/09/12 08:29:39;;;;;;;5.80;5.30;;;20.10;56.40;;;;;;4917462;29;20473;-52
2022/09/12 08:32:09;;;;;;;6.27;5.77;;;20.10;56.40;;;;;;4913405;29;20471;-52
2022/09/12 08:34:38;;;;;;;6.30;5.70;;;20.10;56.40;;;;;;4900647;29;20585;-52
2022/09/12 08:37:06;;;;;;;5.93;5.40;;;20.10;56.40;;;;;;4896391;29;20448;-51
2022/09/12 08:39:35;;;;;;;4.93;4.60;;;20.10;56.40;;;;;;4904909;29;20469;-52
2022/09/12 08:42:06;;;;;;;5.27;4.80;;;20.10;56.40;;;;;;4902767;29;22506;-52
2022/09/12 08:44:59;;;;;;;6.17;5.67;;;20.10;56.40;;;;;;4910691;29;20481;-52
2022/09/12 08:47:31;;;;;;;5.13;4.60;;;20.10;56.50;;;;;;4914389;29;20518;-52
2022/09/12 08:50:11;;;;;;;6.50;5.47;;;20.10;56.40;;;;;;4910209;29;20472;-51
2022/09/12 08:52:47;;;;;;;7.75;6.95;;;20.10;56.60;;;;;;4907609;29;20441;-52
2022/09/12 08:55:27;;;;;;;7.20;6.50;;;20.20;58.40;;;;;;4912931;29;20236;-53
2022/09/12 08:57:59;;;;;;;5.70;5.20;;;20.20;57.50;;;;;;4928921;29;20439;-50
2022/09/12 09:00:39;;;;;;;5.83;5.33;;;20.20;57.40;;;;;;4912762;29;20461;-51
2022/09/12 09:03:31;;;;;;;6.47;5.97;;;20.20;57.50;;;;;;4906181;29;20944;-53
2022/09/12 09:06:08;;;;;;;5.60;5.13;;;20.20;57.40;;;;;;4905197;29;20449;-52
2022/09/12 09:08:55;;;;;;;5.77;5.27;;;20.20;57.30;;;;;;4909403;29;20477;-50
2022/09/12 09:11:34;;;;;;;5.50;5.00;;;20.20;57.40;;;;;;4904757;29;20449;-50
2022/09/12 09:17:10;;;;;;;5.17;4.77;;;20.10;57.20;;;;;;4932385;29;20503;-52
2022/09/12 09:19:47;;;;;;;5.37;4.97;;;20.20;57.50;;;;;;4899690;29;20486;-52
2022/09/12 09:22:27;;;;;;;5.87;5.27;;;20.20;57.50;;;;;;4910573;29;20444;-52
2022/09/12 09:25:02;;;;;;;5.50;5.00;;;20.20;57.50;;;;;;4915968;29;20571;-52
2022/09/12 09:27:35;;;;;;;4.60;4.20;;;20.20;57.50;;;;;;4912407;29;20753;-52
2022/09/12 09:30:15;;;;;;;6.60;5.67;;;20.20;57.50;;;;;;4904667;29;20476;-52
2022/09/12 09:32:48;;;;;;;5.87;5.37;;;20.20;57.50;;;;;;4916749;29;20848;-51
2022/09/12 09:35:19;;;;;;;6.00;5.50;;;20.20;57.60;;;;;;4927486;29;20485;-52
2022/09/12 09:38:00;;;;;;;5.50;5.00;;;20.20;57.60;;;;;;4910828;29;20458;-52
2022/09/12 09:40:39;;;;;;;5.50;5.10;;;20.10;57.50;;;;;;4900337;29;20887;-52
2022/09/12 09:43:21;;;;;;;4.70;4.30;;;20.20;57.60;;;;;;4910348;29;20485;-52
2022/09/12 09:45:52;;;;;;;4.97;4.57;;;20.20;57.70;;;;;;4916513;29;20555;-51
2022/09/12 09:48:24;;;;;;;4.37;4.00;;;20.20;57.70;;;;;;4923858;29;20465;-52
2022/09/12 09:50:53;;;;;;;5.77;5.17;;;20.10;57.50;;;;;;4911694;29;20456;-52
2022/09/12 09:53:35;;;;;;;4.83;4.43;;;20.20;57.80;;;;;;4916298;29;20451;-51
2022/09/12 09:56:10;;;;;;;6.10;4.67;;;20.20;57.70;;;;;;4905173;29;20458;-52
2022/09/12 09:58:40;;;;;;;5.37;4.90;;;20.20;57.80;;;;;;4914804;29;20463;-52
2022/09/12 10:01:16;;;;;;;5.23;4.80;;;20.20;57.70;;;;;;4916660;29;20445;-51
2022/09/12 10:03:51;;;;;;;5.17;4.67;;;20.20;57.80;;;;;;4912170;29;20471;-52
2022/09/12 10:06:27;;;;;;;5.13;4.73;;;20.20;57.90;;;;;;4914164;29;20452;-51
2022/09/12 10:09:07;;;;;;;5.10;4.60;;;20.20;57.80;;;;;;4911325;29;20544;-52
2022/09/12 10:11:39;;;;;;;5.60;4.30;;;20.20;57.80;;;;;;4891033;29;20456;-52
2022/09/12 10:14:38;;;;;;;5.20;4.70;;;20.20;57.90;;;;;;4911935;29;20822;-52
2022/09/12 10:17:40;;;;;;;5.50;4.30;;;20.20;57.80;;;;;;4932717;29;20888;-52
2022/09/12 10:20:31;;;;;;;5.00;4.60;;;20.10;57.80;;;;;;4877114;29;20526;-51
2022/09/12 10:23:02;;;;;;;5.03;4.63;;;20.20;57.90;;;;;;4912339;29;20444;-50
2022/09/12 10:25:31;;;;;;;4.30;3.90;;;20.10;57.80;;;;;;4903286;29;20476;-50
2022/09/12 10:28:01;;;;;;;3.90;3.60;;;20.20;58.00;;;;;;4892581;29;20456;-50
2022/09/12 10:30:33;;;;;;;4.63;4.23;;;20.20;58.00;;;;;;4906486;29;20476;-50
2022/09/12 10:33:10;;;;;;;5.00;4.60;;;20.20;58.00;;;;;;4901948;29;20457;-51
2022/09/12 10:35:46;;;;;;;6.87;4.00;;;20.20;58.10;;;;;;4898851;29;20517;-50
2022/09/12 10:38:21;;;;;;;4.67;4.27;;;20.20;58.10;;;;;;4914219;29;20436;-51
2022/09/12 10:40:58;;;;;;;4.77;4.37;;;20.20;58.00;;;;;;4905867;29;20527;-52
2022/09/12 10:43:30;;;;;;;4.27;3.97;;;20.20;58.00;;;;;;4899766;29;20468;-52
2022/09/12 10:46:00;;;;;;;4.20;3.90;;;20.20;58.00;;;;;;4916066;29;20468;-52
2022/09/12 10:48:31;;;;;;;4.70;4.30;;;20.20;58.10;;;;;;4894136;29;20458;-52
2022/09/12 10:51:01;;;;;;;4.50;4.20;;;20.20;58.10;;;;;;4909925;29;20437;-51
2022/09/12 10:53:40;;;;;;;3.97;3.67;;;20.10;58.00;;;;;;4902877;29;20522;-53
2022/09/12 10:56:12;;;;;;;4.17;3.77;;;20.20;58.20;;;;;;4903425;29;20450;-52
2022/09/12 10:59:03;;;;;;;4.87;4.23;;;20.20;58.10;;;;;;4915894;29;20447;-52
2022/09/12 11:01:41;;;;;;;4.20;3.90;;;20.20;58.10;;;;;;4914240;29;20445;-52
2022/09/12 11:04:24;;;;;;;4.00;3.70;;;20.20;58.10;;;;;;4910040;29;20480;-53
2022/09/12 11:07:05;;;;;;;3.70;3.40;;;20.20;58.10;;;;;;4915859;29;20452;-51
2022/09/12 11:09:42;;;;;;;4.00;3.70;;;20.20;58.10;;;;;;4902448;29;20480;-53
2022/09/12 11:12:18;;;;;;;3.90;3.60;;;20.20;58.10;;;;;;4885186;29;20448;-53
2022/09/12 11:15:03;;;;;;;4.50;3.50;;;20.20;58.10;;;;;;4917431;29;20863;-52
2022/09/12 11:17:45;;;;;;;4.17;3.77;;;20.20;58.10;;;;;;4911655;29;21124;-51
2022/09/12 11:20:41;;;;;;;4.03;3.73;;;20.20;58.10;;;;;;4927785;29;20865;-51
2022/09/12 11:23:48;;;;;;;3.90;3.60;;;20.20;58.10;;;;;;4908121;29;20450;-51
2022/09/12 11:26:34;;;;;;;3.93;3.63;;;20.20;58.00;;;;;;4900857;29;20544;-52
2022/09/12 11:29:13;;;;;;;3.87;3.47;;;20.20;58.00;;;;;;4901716;29;20472;-53
2022/09/12 11:32:08;;;;;;;3.50;3.30;;;20.20;58.00;;;;;;4898261;29;20507;-51
2022/09/12 11:34:48;;;;;;;3.20;2.97;;;20.20;58.00;;;;;;4913009;29;20488;-51
2022/09/12 11:37:37;;;;;;;4.13;2.93;;;20.20;58.00;;;;;;4912261;29;20437;-53
2022/09/12 11:40:21;;;;;;;3.00;2.70;;;20.20;57.90;;;;;;4910171;29;20833;-50
2022/09/12 11:42:54;;;;;;;3.07;2.87;;;20.20;57.80;;;;;;4910632;29;20452;-51
2022/09/12 11:45:28;;;;;;;3.60;3.30;;;20.20;57.80;;;;;;4917909;29;20504;-52
2022/09/12 11:48:02;;;;;;;3.40;3.10;;;20.20;57.70;;;;;;4917181;29;20519;-52
2022/09/12 11:50:32;;;;;;;3.60;3.23;;;20.20;57.70;;;;;;4897314;29;20859;-51
2022/09/12 11:53:11;;;;;;;3.23;2.93;;;20.20;57.80;;;;;;4907105;29;20876;-51
2022/09/12 11:55:52;;;;;;;3.40;3.10;;;20.20;57.70;;;;;;4900593;29;20902;-52
2022/09/12 11:58:24;;;;;;;2.43;2.23;;;20.20;57.70;;;;;;4916159;29;20445;-51
2022/09/12 12:00:57;;;;;;;3.33;3.07;;;20.20;57.60;;;;;;4904306;29;20900;-52
2022/09/12 12:03:32;;;;;;;3.10;2.90;;;20.20;57.60;;;;;;4909832;29;20547;-52
2022/09/12 12:06:05;;;;;;;3.20;2.90;;;20.30;57.70;;;;;;4915018;29;20956;-52
2022/09/12 12:08:41;;;;;;;3.10;2.80;;;20.20;57.50;;;;;;4904785;29;20449;-53
2022/09/12 12:11:25;;;;;;;2.90;2.63;;;20.30;57.60;;;;;;4914916;29;20468;-52
2022/09/12 12:13:59;;;;;;;3.30;2.37;;;20.20;57.50;;;;;;4910607;29;20484;-52
2022/09/12 12:16:29;;;;;;;2.87;2.67;;;20.20;57.40;;;;;;4917999;29;20576;-52
2022/09/12 12:19:00;;;;;;;2.87;2.67;;;20.20;57.30;;;;;;4913152;29;20533;-52
2022/09/12 12:21:40;;;;;;;2.70;2.50;;;20.20;57.20;;;;;;4896601;29;20485;-52
2022/09/12 12:24:21;;;;;;;2.47;2.27;;;20.30;57.30;;;;;;4907973;29;20503;-52
2022/09/12 12:27:00;;;;;;;2.50;2.40;;;20.30;57.30;;;;;;4909394;29;20445;-52
2022/09/12 12:29:43;;;;;;;2.03;1.90;;;20.20;57.10;;;;;;4921311;29;20480;-53
2022/09/12 12:32:23;;;;;;;2.30;2.10;;;20.30;57.20;;;;;;4903512;29;21013;-52
2022/09/12 12:35:03;;;;;;;2.80;2.60;;;20.30;57.20;;;;;;4902797;29;20485;-52
2022/09/12 12:37:54;;;;;;;2.30;2.10;;;20.30;57.20;;;;;;4906681;29;20527;-52
2022/09/12 12:40:27;;;;;;;2.80;2.60;;;20.30;57.10;;;;;;4906162;29;20750;-53
2022/09/12 12:43:15;;;;;;;2.30;2.10;;;20.30;57.00;;;;;;4907557;29;20834;-51
2022/09/12 12:46:11;;;;;;;2.73;2.53;;;20.30;57.10;;;;;;4902600;29;21183;-50
2022/09/12 12:49:04;;;;;;;1.83;1.73;;;20.30;57.00;;;;;;4904128;29;20445;-52
2022/09/12 12:51:49;;;;;;;1.93;1.83;;;20.30;56.90;;;;;;4910514;29;20563;-51
2022/09/12 12:54:49;;;;;;;1.70;1.60;;;20.30;56.90;;;;;;4916349;29;20464;-52
2022/09/12 12:57:27;;;;;;;1.93;1.80;;;20.30;56.90;;;;;;4904121;29;20453;-52
2022/09/12 13:00:01;;;;;;;2.13;2.03;;;20.30;56.80;;;;;;4904614;29;20559;-52
2022/09/12 13:02:34;;;;;;;2.10;2.00;;;20.30;56.80;;;;;;4909919;29;20437;-53
2022/09/12 13:05:16;;;;;;;2.40;1.63;;;20.30;56.70;;;;;;4907676;29;20567;-52
2022/09/12 13:07:46;;;;;;;1.90;1.53;;;20.30;56.70;;;;;;4922209;29;20853;-52
2022/09/12 13:10:23;;;;;;;2.30;2.10;;;20.30;56.60;;;;;;4913320;29;20531;-52
2022/09/12 13:12:53;;;;;;;1.83;1.73;;;20.30;56.70;;;;;;4911920;29;20468;-52
2022/09/12 13:15:51;;;;;;;2.00;1.70;;;20.30;56.40;;;;;;4910432;29;20544;-52
2022/09/12 13:18:27;;;;;;;2.40;2.20;;;20.40;56.60;;;;;;4905417;29;20957;-51
2022/09/12 13:21:03;;;;;;;1.80;1.70;;;20.40;56.70;;;;;;4916012;29;20192;-52
2022/09/12 13:23:34;;;;;;;1.87;1.77;;;20.40;56.50;;;;;;4902049;29;20468;-50
2022/09/12 13:26:03;;;;;;;3.97;1.80;;;20.40;56.50;;;;;;4904779;29;20974;-52